sensor_id;sensor_type;location;lat;lon;timestamp;pressure;altitude;pressure_sealevel;temperature;humidity
31011;BME280;26395;53.412;19.598;2023-08-08T00:14:55;99149.19;;;20.88;59.66
31011;BME280;26395;53.412;19.598;2023-08-08T00:29:58;99161.30;;;20.82;58.80
31011;BME280;26395;53.412;19.598;2023-08-08T00:45:02;99169.09;;;20.89;58.66
31011;BME280;26395;53.412;19.598;2023-08-08T01:00:07;99191.80;;;20.96;58.80
31011;BME280;26395;53.412;19.598;2023-08-08T01:15:13;99207.86;;;20.88;59.35
31011;BME280;26395;53.412;19.598;2023-08-08T01:30:31;99216.93;;;20.73;60.27
31011;BME280;26395;53.412;19.598;2023-08-08T01:45:56;99222.15;;;20.35;60.73
31011;BME280;26395;53.412;19.598;2023-08-08T02:01:03;99235.30;;;20.69;59.47
31011;BME280;26395;53.412;19.598;2023-08-08T02:16:07;99254.52;;;19.93;61.00
31011;BME280;26395;53.412;19.598;2023-08-08T02:31:10;99269.67;;;20.04;61.08
31011;BME280;26395;53.412;19.598;2023-08-08T02:46:14;99280.05;;;19.94;61.70
31011;BME280;26395;53.412;19.598;2023-08-08T03:01:17;99284.42;;;20.16;61.58
31011;BME280;26395;53.412;19.598;2023-08-08T03:16:22;99297.09;;;20.05;62.06
31011;BME280;26395;53.412;19.598;2023-08-08T03:31:27;99310.50;;;20.12;62.46
31011;BME280;26395;53.412;19.598;2023-08-08T03:46:31;99321.59;;;19.59;63.86
31011;BME280;26395;53.412;19.598;2023-08-08T04:01:35;99334.81;;;19.48;65.03
31011;BME280;26395;53.412;19.598;2023-08-08T04:16:41;99355.71;;;19.60;65.42
31011;BME280;26395;53.412;19.598;2023-08-08T04:31:44;99374.40;;;19.57;65.70
31011;BME280;26395;53.412;19.598;2023-08-08T04:46:49;99387.73;;;19.84;65.80
31011;BME280;26395;53.412;19.598;2023-08-08T05:01:53;99400.52;;;19.94;66.16
31011;BME280;26395;53.412;19.598;2023-08-08T05:16:56;99410.02;;;20.30;64.41
31011;BME280;26395;53.412;19.598;2023-08-08T05:31:59;99422.55;;;20.93;63.07
31011;BME280;26395;53.412;19.598;2023-08-08T05:47:03;99441.34;;;21.33;62.89
31011;BME280;26395;53.412;19.598;2023-08-08T06:02:06;99443.90;;;23.37;59.54
31011;BME280;26395;53.412;19.598;2023-08-08T06:17:10;99458.30;;;24.56;55.77
31011;BME280;26395;53.412;19.598;2023-08-08T06:32:13;99467.71;;;25.01;54.10
31011;BME280;26395;53.412;19.598;2023-08-08T06:47:17;99481.49;;;22.64;57.65
31011;BME280;26395;53.412;19.598;2023-08-08T07:02:20;99486.05;;;23.19;57.57
31011;BME280;26395;53.412;19.598;2023-08-08T07:17:24;99500.42;;;23.95;55.89
31011;BME280;26395;53.412;19.598;2023-08-08T07:32:27;99515.02;;;22.75;58.18
31011;BME280;26395;53.412;19.598;2023-08-08T07:47:33;99524.14;;;22.08;60.08
31011;BME280;26395;53.412;19.598;2023-08-08T08:02:38;99539.39;;;22.06;60.09
31011;BME280;26395;53.412;19.598;2023-08-08T08:17:42;99551.54;;;23.97;57.43
31011;BME280;26395;53.412;19.598;2023-08-08T08:32:46;99549.36;;;24.49;53.72
31011;BME280;26395;53.412;19.598;2023-08-08T08:47:53;99540.71;;;23.30;54.66
31011;BME280;26395;53.412;19.598;2023-08-08T09:02:59;99557.13;;;23.22;54.49
31011;BME280;26395;53.412;19.598;2023-08-08T09:18:03;99574.90;;;23.53;55.03
31011;BME280;26395;53.412;19.598;2023-08-08T09:33:06;99583.92;;;24.07;53.53
31011;BME280;26395;53.412;19.598;2023-08-08T09:48:10;99596.25;;;23.92;52.27
31011;BME280;26395;53.412;19.598;2023-08-08T10:03:14;99620.36;;;24.04;52.67
31011;BME280;26395;53.412;19.598;2023-08-08T10:18:21;99622.50;;;24.31;51.48
31011;BME280;26395;53.412;19.598;2023-08-08T10:33:27;99628.95;;;24.21;52.69
31011;BME280;26395;53.412;19.598;2023-08-08T10:48:32;99632.65;;;26.15;48.86
31011;BME280;26395;53.412;19.598;2023-08-08T11:03:40;99624.25;;;26.71;47.08
31011;BME280;26395;53.412;19.598;2023-08-08T11:18:45;99632.40;;;25.85;47.73
31011;BME280;26395;53.412;19.598;2023-08-08T11:33:48;99650.23;;;26.26;47.46
31011;BME280;26395;53.412;19.598;2023-08-08T11:48:52;99658.98;;;26.64;47.70
31011;BME280;26395;53.412;19.598;2023-08-08T12:03:56;99669.20;;;26.33;47.95
31011;BME280;26395;53.412;19.598;2023-08-08T12:19:06;99675.59;;;26.49;48.84
31011;BME280;26395;53.412;19.598;2023-08-08T12:34:10;99683.10;;;26.82;47.51
31011;BME280;26395;53.412;19.598;2023-08-08T12:49:14;99674.40;;;26.48;47.67
31011;BME280;26395;53.412;19.598;2023-08-08T13:04:17;99682.92;;;27.09;47.39
31011;BME280;26395;53.412;19.598;2023-08-08T13:19:22;99696.91;;;25.84;49.66
31011;BME280;26395;53.412;19.598;2023-08-08T13:34:28;99723.58;;;25.01;50.03
31011;BME280;26395;53.412;19.598;2023-08-08T13:49:35;99737.92;;;24.52;57.70
31011;BME280;26395;53.412;19.598;2023-08-08T14:04:44;99727.54;;;24.58;59.35
31011;BME280;26395;53.412;19.598;2023-08-08T14:20:09;99719.08;;;25.53;56.53
31011;BME280;26395;53.412;19.598;2023-08-08T14:35:13;99716.61;;;26.13;51.86
31011;BME280;26395;53.412;19.598;2023-08-08T14:50:16;99726.80;;;25.74;50.79
31011;BME280;26395;53.412;19.598;2023-08-08T15:05:20;99733.45;;;24.53;52.78
31011;BME280;26395;53.412;19.598;2023-08-08T15:20:25;99741.75;;;24.97;52.00
31011;BME280;26395;53.412;19.598;2023-08-08T15:48:27;99757.56;;;24.98;52.76
31011;BME280;26395;53.412;19.598;2023-08-08T16:03:33;99775.08;;;24.88;52.25
31011;BME280;26395;53.412;19.598;2023-08-08T16:18:38;99779.16;;;24.28;51.53
31011;BME280;26395;53.412;19.598;2023-08-08T16:33:42;99789.96;;;23.67;54.08
31011;BME280;26395;53.412;19.598;2023-08-08T16:48:46;99795.66;;;22.98;56.89
31011;BME280;26395;53.412;19.598;2023-08-08T17:03:54;99799.45;;;22.49;59.02
31011;BME280;26395;53.412;19.598;2023-08-08T17:19:04;99798.25;;;22.49;61.19
31011;BME280;26395;53.412;19.598;2023-08-08T17:34:24;99803.27;;;22.07;63.74
31011;BME280;26395;53.412;19.598;2023-08-08T17:49:33;99799.70;;;22.02;65.35
31011;BME280;26395;53.412;19.598;2023-08-08T18:04:42;99797.41;;;21.78;66.71
31011;BME280;26395;53.412;19.598;2023-08-08T18:19:53;99800.02;;;21.52;66.25
31011;BME280;26395;53.412;19.598;2023-08-08T18:35:00;99814.89;;;20.76;68.15
31011;BME280;26395;53.412;19.598;2023-08-08T18:50:06;99845.50;;;20.51;70.93
31011;BME280;26395;53.412;19.598;2023-08-08T19:05:10;99859.39;;;21.13;69.25
31011;BME280;26395;53.412;19.598;2023-08-08T19:20:18;99856.71;;;21.14;66.65
31011;BME280;26395;53.412;19.598;2023-08-08T19:35:26;99848.91;;;21.39;64.46
31011;BME280;26395;53.412;19.598;2023-08-08T19:50:36;99840.79;;;21.33;63.54
31011;BME280;26395;53.412;19.598;2023-08-08T20:05:41;99833.23;;;21.18;64.13
31011;BME280;26395;53.412;19.598;2023-08-08T20:20:46;99827.52;;;20.55;67.52
31011;BME280;26395;53.412;19.598;2023-08-08T20:35:53;99817.59;;;19.91;72.36
31011;BME280;26395;53.412;19.598;2023-08-08T20:50:59;99809.61;;;19.67;74.67
31011;BME280;26395;53.412;19.598;2023-08-08T21:06:02;99819.55;;;18.90;77.75
31011;BME280;26395;53.412;19.598;2023-08-08T21:21:07;99817.42;;;18.69;78.17
31011;BME280;26395;53.412;19.598;2023-08-08T21:36:11;99818.30;;;18.79;78.61
31011;BME280;26395;53.412;19.598;2023-08-08T21:51:15;99828.71;;;19.01;76.04
31011;BME280;26395;53.412;19.598;2023-08-08T22:06:20;99847.05;;;19.05;74.99
31011;BME280;26395;53.412;19.598;2023-08-08T22:21:24;99847.86;;;19.25;74.60
31011;BME280;26395;53.412;19.598;2023-08-08T22:36:30;99856.73;;;19.24;75.34
31011;BME280;26395;53.412;19.598;2023-08-08T22:51:34;99862.61;;;19.53;74.96
31011;BME280;26395;53.412;19.598;2023-08-08T23:06:39;99857.58;;;19.15;78.02
31011;BME280;26395;53.412;19.598;2023-08-08T23:21:42;99861.24;;;19.35;77.08
31011;BME280;26395;53.412;19.598;2023-08-08T23:36:46;99865.02;;;19.36;77.21
31011;BME280;26395;53.412;19.598;2023-08-08T23:51:50;99882.85;;;19.36;77.33
